BAW445 EHAM-EGLL
Flight info
| Callsign | BAW445 |
|---|---|
| Flight time | 0h 46m |
| Altitude | 22000 |
| Route | IDRID L980 LOGAN |
| Aircraft | A20N/M-SDE2E3FGHIRWXY/LB1 |
Departure
| Time | 2026-05-03 22:28 |
|---|---|
| Airport | Amsterdam Airport Schiphol (EHAM) |
Arrival
| Time | 2026-05-03 23:15 |
|---|---|
| Airport | London Heathrow Airport (EGLL) |
| Time | Latitude | Longitude | Altitude | Speed | Heading |
|---|---|---|---|---|---|
| 2026-05-03 22:04 | 52.31184 | 4.75808 | 2 ft | 0 kts | 267° |
| 2026-05-03 22:10 | 52.31185 | 4.75825 | 2 ft | 3 kts | 267° |
| 2026-05-03 22:11 | 52.31186 | 4.75856 | 2 ft | 3 kts | 267° |
| 2026-05-03 22:11 | 52.31186 | 4.75887 | 2 ft | 3 kts | 267° |
| 2026-05-03 22:11 | 52.31185 | 4.75916 | 2 ft | 3 kts | 313° |
| 2026-05-03 22:11 | 52.31179 | 4.75925 | 2 ft | 0 kts | 350° |
| 2026-05-03 22:12 | 52.31192 | 4.75968 | 3 ft | 4 kts | 123° |
| 2026-05-03 22:12 | 52.31171 | 4.75965 | 3 ft | 3 kts | 224° |
| 2026-05-03 22:13 | 52.31176 | 4.75932 | 2 ft | 5 kts | 318° |
| 2026-05-03 22:13 | 52.31186 | 4.75930 | 2 ft | 0 kts | 4° |
| 2026-05-03 22:13 | 52.31189 | 4.75932 | 2 ft | 0 kts | 16° |
| 2026-05-03 22:14 | 52.31191 | 4.75934 | 2 ft | 0 kts | 27° |
| 2026-05-03 22:14 | 52.31193 | 4.75939 | 2 ft | 0 kts | 43° |
| 2026-05-03 22:14 | 52.31194 | 4.75939 | 2 ft | 0 kts | 45° |
| 2026-05-03 22:14 | 52.31184 | 4.75810 | 2 ft | 1 kts | 267° |
| 2026-05-03 22:15 | 52.31184 | 4.75808 | 2 ft | 0 kts | 267° |
| 2026-05-03 22:19 | 52.31185 | 4.75840 | 2 ft | 4 kts | 268° |
| 2026-05-03 22:19 | 52.31190 | 4.75880 | 2 ft | 4 kts | 232° |
| 2026-05-03 22:19 | 52.31202 | 4.75913 | 2 ft | 4 kts | 273° |
| 2026-05-03 22:20 | 52.31194 | 4.75953 | 2 ft | 4 kts | 301° |
| 2026-05-03 22:20 | 52.31188 | 4.75970 | 2 ft | 1 kts | 301° |
| 2026-05-03 22:20 | 52.31204 | 4.75948 | 2 ft | 4 kts | 333° |
| 2026-05-03 22:20 | 52.31230 | 4.75939 | 2 ft | 4 kts | 354° |
| 2026-05-03 22:21 | 52.31244 | 4.75938 | 2 ft | 1 kts | 357° |
| 2026-05-03 22:22 | 52.31245 | 4.75938 | 2 ft | 0 kts | 358° |
| 2026-05-03 22:22 | 52.31253 | 4.75937 | 2 ft | 6 kts | 358° |
| 2026-05-03 22:23 | 52.31343 | 4.75928 | 2 ft | 15 kts | 357° |
| 2026-05-03 22:23 | 52.31441 | 4.75973 | 2 ft | 16 kts | 63° |
| 2026-05-03 22:23 | 52.31452 | 4.76156 | 2 ft | 18 kts | 87° |
| 2026-05-03 22:23 | 52.31459 | 4.76368 | 2 ft | 20 kts | 88° |
| 2026-05-03 22:24 | 52.31469 | 4.76604 | 2 ft | 22 kts | 86° |
| 2026-05-03 22:24 | 52.31478 | 4.76871 | 2 ft | 25 kts | 87° |
| 2026-05-03 22:24 | 52.31475 | 4.77151 | 3 ft | 25 kts | 112° |
| 2026-05-03 22:24 | 52.31374 | 4.77362 | 2 ft | 22 kts | 130° |
| 2026-05-03 22:25 | 52.31246 | 4.77505 | 3 ft | 24 kts | 175° |
| 2026-05-03 22:25 | 52.31071 | 4.77491 | 2 ft | 27 kts | 184° |
| 2026-05-03 22:25 | 52.30877 | 4.77471 | 2 ft | 29 kts | 184° |
| 2026-05-03 22:25 | 52.30685 | 4.77458 | 2 ft | 20 kts | 175° |
| 2026-05-03 22:26 | 52.30562 | 4.77551 | 2 ft | 6 kts | 155° |
| 2026-05-03 22:26 | 52.30555 | 4.77557 | 2 ft | 2 kts | 155° |
| 2026-05-03 22:26 | 52.30537 | 4.77571 | 2 ft | 4 kts | 153° |
| 2026-05-03 22:26 | 52.30502 | 4.77600 | 2 ft | 9 kts | 153° |
| 2026-05-03 22:27 | 52.30422 | 4.77626 | 2 ft | 14 kts | 202° |
| 2026-05-03 22:27 | 52.30355 | 4.77493 | 1 ft | 17 kts | 240° |
| 2026-05-03 22:27 | 52.30287 | 4.77319 | -1 ft | 20 kts | 238° |
| 2026-05-03 22:27 | 52.30120 | 4.76881 | 1 ft | 95 kts | 238° |
| 2026-05-03 22:28 | 52.29573 | 4.75460 | 177 ft | 183 kts | 238° |
| 2026-05-03 22:28 | 52.28892 | 4.73744 | 809 ft | 188 kts | 237° |
| 2026-05-03 22:28 | 52.28096 | 4.71732 | 1358 ft | 230 kts | 238° |
| 2026-05-03 22:28 | 52.27087 | 4.69520 | 1954 ft | 250 kts | 228° |
| 2026-05-03 22:29 | 52.25847 | 4.67424 | 3087 ft | 259 kts | 225° |
| 2026-05-03 22:29 | 52.24631 | 4.65252 | 4599 ft | 259 kts | 236° |
| 2026-05-03 22:29 | 52.23830 | 4.62613 | 6080 ft | 263 kts | 249° |
| 2026-05-03 22:29 | 52.23215 | 4.59783 | 7454 ft | 268 kts | 251° |
| 2026-05-03 22:30 | 52.22622 | 4.56860 | 8763 ft | 274 kts | 252° |
| 2026-05-03 22:30 | 52.22024 | 4.53923 | 10031 ft | 279 kts | 251° |
| 2026-05-03 22:30 | 52.21398 | 4.50886 | 11280 ft | 285 kts | 251° |
| 2026-05-03 22:30 | 52.20755 | 4.47796 | 12537 ft | 291 kts | 251° |
| 2026-05-03 22:31 | 52.20093 | 4.44633 | 13656 ft | 303 kts | 251° |
| 2026-05-03 22:31 | 52.19377 | 4.41227 | 14261 ft | 332 kts | 251° |
| 2026-05-03 22:31 | 52.18594 | 4.37512 | 14729 ft | 360 kts | 251° |
| 2026-05-03 22:31 | 52.17749 | 4.33516 | 15175 ft | 386 kts | 251° |
| 2026-05-03 22:32 | 52.16848 | 4.29262 | 15647 ft | 407 kts | 251° |
| 2026-05-03 22:32 | 52.15906 | 4.24831 | 16374 ft | 419 kts | 251° |
| 2026-05-03 22:32 | 52.14943 | 4.20304 | 17201 ft | 426 kts | 251° |
| 2026-05-03 22:32 | 52.13962 | 4.15709 | 18049 ft | 432 kts | 251° |
| 2026-05-03 22:33 | 52.12968 | 4.11057 | 18872 ft | 438 kts | 251° |
| 2026-05-03 22:33 | 52.11962 | 4.06365 | 19657 ft | 444 kts | 250° |
| 2026-05-03 22:33 | 52.10922 | 4.01590 | 20425 ft | 449 kts | 250° |
| 2026-05-03 22:33 | 52.09869 | 3.96785 | 21151 ft | 454 kts | 250° |
| 2026-05-03 22:34 | 52.08808 | 3.91929 | 21727 ft | 456 kts | 250° |
| 2026-05-03 22:34 | 52.07747 | 3.87059 | 21962 ft | 459 kts | 250° |
| 2026-05-03 22:34 | 52.06682 | 3.82165 | 22003 ft | 460 kts | 250° |
| 2026-05-03 22:34 | 52.05616 | 3.77272 | 22001 ft | 461 kts | 250° |
| 2026-05-03 22:35 | 52.04586 | 3.72549 | 22002 ft | 462 kts | 250° |
| 2026-05-03 22:35 | 52.03489 | 3.67525 | 22000 ft | 462 kts | 250° |
| 2026-05-03 22:35 | 52.02415 | 3.62618 | 22001 ft | 462 kts | 250° |
| 2026-05-03 22:35 | 52.01338 | 3.57712 | 22002 ft | 462 kts | 250° |
| 2026-05-03 22:36 | 52.00242 | 3.52812 | 22005 ft | 462 kts | 248° |
| 2026-05-03 22:36 | 51.98820 | 3.48144 | 22002 ft | 462 kts | 239° |
| 2026-05-03 22:36 | 51.97081 | 3.43755 | 21999 ft | 462 kts | 235° |
| 2026-05-03 22:36 | 51.95207 | 3.39529 | 22001 ft | 462 kts | 233° |
| 2026-05-03 22:37 | 51.93294 | 3.35423 | 21998 ft | 462 kts | 232° |
| 2026-05-03 22:37 | 51.91340 | 3.31283 | 21996 ft | 462 kts | 232° |
| 2026-05-03 22:37 | 51.89393 | 3.27141 | 21999 ft | 462 kts | 232° |
| 2026-05-03 22:37 | 51.87462 | 3.22966 | 21997 ft | 462 kts | 234° |
| 2026-05-03 22:38 | 51.85824 | 3.18407 | 22003 ft | 463 kts | 245° |
| 2026-05-03 22:38 | 51.84812 | 3.13573 | 21997 ft | 462 kts | 256° |
| 2026-05-03 22:38 | 51.84214 | 3.08596 | 21992 ft | 435 kts | 260° |
| 2026-05-03 22:38 | 51.83819 | 3.03902 | 21994 ft | 408 kts | 262° |
| 2026-05-03 22:39 | 51.83530 | 2.99472 | 21993 ft | 385 kts | 263° |
| 2026-05-03 22:39 | 51.83286 | 2.95245 | 22000 ft | 373 kts | 264° |
| 2026-05-03 22:39 | 51.83050 | 2.91090 | 21999 ft | 371 kts | 264° |
| 2026-05-03 22:39 | 51.82805 | 2.86932 | 21998 ft | 371 kts | 263° |
| 2026-05-03 22:40 | 51.82547 | 2.82779 | 21998 ft | 371 kts | 263° |
| 2026-05-03 22:40 | 51.82279 | 2.78635 | 22005 ft | 371 kts | 263° |
| 2026-05-03 22:40 | 51.82004 | 2.74485 | 22000 ft | 371 kts | 263° |
| 2026-05-03 22:40 | 51.81724 | 2.70345 | 21998 ft | 371 kts | 263° |
| 2026-05-03 22:41 | 51.81439 | 2.66190 | 22000 ft | 371 kts | 263° |
| 2026-05-03 22:41 | 51.81153 | 2.62045 | 22001 ft | 371 kts | 263° |
| 2026-05-03 22:41 | 51.80866 | 2.57904 | 22000 ft | 371 kts | 263° |
| 2026-05-03 22:41 | 51.80578 | 2.53770 | 22004 ft | 371 kts | 263° |
| 2026-05-03 22:42 | 51.80289 | 2.49639 | 21999 ft | 371 kts | 262° |
| 2026-05-03 22:42 | 51.79997 | 2.45480 | 22001 ft | 371 kts | 262° |
| 2026-05-03 22:42 | 51.79705 | 2.41345 | 21997 ft | 371 kts | 262° |
| 2026-05-03 22:42 | 51.79411 | 2.37189 | 22005 ft | 371 kts | 262° |
| 2026-05-03 22:43 | 51.79115 | 2.33035 | 22001 ft | 371 kts | 262° |
| 2026-05-03 22:43 | 51.78819 | 2.28896 | 21999 ft | 371 kts | 262° |
| 2026-05-03 22:43 | 51.78521 | 2.24756 | 22005 ft | 371 kts | 262° |
| 2026-05-03 22:43 | 51.78262 | 2.20675 | 21999 ft | 358 kts | 264° |
| 2026-05-03 22:44 | 51.78046 | 2.16741 | 22000 ft | 348 kts | 264° |
| 2026-05-03 22:44 | 51.77833 | 2.12872 | 21997 ft | 345 kts | 264° |
| 2026-05-03 22:44 | 51.77618 | 2.09062 | 21999 ft | 345 kts | 264° |
| 2026-05-03 22:44 | 51.77392 | 2.05156 | 21999 ft | 345 kts | 264° |
| 2026-05-03 22:45 | 51.77165 | 2.01302 | 22000 ft | 345 kts | 263° |
| 2026-05-03 22:45 | 51.76939 | 1.97500 | 21999 ft | 345 kts | 263° |
| 2026-05-03 22:45 | 51.76705 | 1.93596 | 22001 ft | 345 kts | 263° |
| 2026-05-03 22:45 | 51.76472 | 1.89746 | 21999 ft | 345 kts | 263° |
| 2026-05-03 22:46 | 51.76242 | 1.85958 | 21999 ft | 345 kts | 263° |
| 2026-05-03 22:46 | 51.76005 | 1.82095 | 21999 ft | 345 kts | 263° |
| 2026-05-03 22:46 | 51.75769 | 1.78246 | 21999 ft | 345 kts | 263° |
| 2026-05-03 22:46 | 51.75530 | 1.74396 | 21999 ft | 345 kts | 263° |
| 2026-05-03 22:47 | 51.75291 | 1.70553 | 22001 ft | 345 kts | 263° |
| 2026-05-03 22:47 | 51.75050 | 1.66698 | 22003 ft | 345 kts | 263° |
| 2026-05-03 22:47 | 51.74809 | 1.62854 | 21999 ft | 345 kts | 263° |
| 2026-05-03 22:47 | 51.74565 | 1.59001 | 21999 ft | 345 kts | 263° |
| 2026-05-03 22:48 | 51.74321 | 1.55157 | 21999 ft | 345 kts | 263° |
| 2026-05-03 22:48 | 51.74075 | 1.51309 | 21999 ft | 345 kts | 263° |
| 2026-05-03 22:48 | 51.73828 | 1.47470 | 22005 ft | 345 kts | 263° |
| 2026-05-03 22:48 | 51.73580 | 1.43627 | 21998 ft | 345 kts | 263° |
| 2026-05-03 22:49 | 51.73330 | 1.39770 | 21999 ft | 345 kts | 263° |
| 2026-05-03 22:49 | 51.73079 | 1.35927 | 22005 ft | 345 kts | 263° |
| 2026-05-03 22:49 | 51.72827 | 1.32086 | 22000 ft | 345 kts | 263° |
| 2026-05-03 22:49 | 51.72575 | 1.28262 | 21925 ft | 343 kts | 263° |
| 2026-05-03 22:50 | 51.72321 | 1.24434 | 21284 ft | 345 kts | 263° |
| 2026-05-03 22:50 | 51.72065 | 1.20598 | 20786 ft | 342 kts | 263° |
| 2026-05-03 22:50 | 51.71811 | 1.16803 | 20337 ft | 337 kts | 263° |
| 2026-05-03 22:50 | 51.71560 | 1.13059 | 19852 ft | 334 kts | 263° |
| 2026-05-03 22:51 | 51.71310 | 1.09353 | 19354 ft | 331 kts | 263° |
| 2026-05-03 22:51 | 51.71061 | 1.05679 | 18851 ft | 329 kts | 263° |
| 2026-05-03 22:51 | 51.70812 | 1.02032 | 18348 ft | 326 kts | 263° |
| 2026-05-03 22:51 | 51.70565 | 0.98426 | 17848 ft | 323 kts | 263° |
| 2026-05-03 22:52 | 51.70322 | 0.94887 | 17349 ft | 321 kts | 263° |
| 2026-05-03 22:52 | 51.70072 | 0.91274 | 16840 ft | 318 kts | 263° |
| 2026-05-03 22:52 | 51.69826 | 0.87739 | 16344 ft | 316 kts | 263° |
| 2026-05-03 22:52 | 51.69582 | 0.84235 | 16052 ft | 314 kts | 263° |
| 2026-05-03 22:53 | 51.69338 | 0.80744 | 15997 ft | 315 kts | 263° |
| 2026-05-03 22:53 | 51.69095 | 0.77293 | 15655 ft | 312 kts | 262° |
| 2026-05-03 22:53 | 51.68846 | 0.73777 | 15129 ft | 310 kts | 262° |
| 2026-05-03 22:53 | 51.68603 | 0.70351 | 14630 ft | 308 kts | 262° |
| 2026-05-03 22:54 | 51.68363 | 0.66983 | 14132 ft | 305 kts | 262° |
| 2026-05-03 22:54 | 51.68120 | 0.63584 | 13634 ft | 303 kts | 262° |
| 2026-05-03 22:54 | 51.67880 | 0.60236 | 13145 ft | 301 kts | 262° |
| 2026-05-03 22:54 | 51.67639 | 0.56902 | 12645 ft | 299 kts | 262° |
| 2026-05-03 22:55 | 51.67399 | 0.53591 | 12152 ft | 297 kts | 262° |
| 2026-05-03 22:55 | 51.67160 | 0.50298 | 11659 ft | 294 kts | 262° |
| 2026-05-03 22:55 | 51.66922 | 0.47038 | 11276 ft | 289 kts | 262° |
| 2026-05-03 22:55 | 51.66694 | 0.43906 | 11085 ft | 277 kts | 262° |
| 2026-05-03 22:56 | 51.66473 | 0.40884 | 10916 ft | 265 kts | 262° |
| 2026-05-03 22:56 | 51.66261 | 0.37974 | 10658 ft | 258 kts | 262° |
| 2026-05-03 22:56 | 51.66052 | 0.35128 | 10346 ft | 255 kts | 262° |
| 2026-05-03 22:56 | 51.65842 | 0.32294 | 9992 ft | 253 kts | 262° |
| 2026-05-03 22:57 | 51.65634 | 0.29490 | 9602 ft | 252 kts | 262° |
| 2026-05-03 22:57 | 51.65425 | 0.26697 | 9245 ft | 250 kts | 262° |
| 2026-05-03 22:57 | 51.65218 | 0.23930 | 9072 ft | 249 kts | 262° |
| 2026-05-03 22:57 | 51.65009 | 0.21149 | 9053 ft | 250 kts | 262° |
| 2026-05-03 22:58 | 51.64800 | 0.18384 | 9057 ft | 249 kts | 262° |
| 2026-05-03 22:58 | 51.64650 | 0.15599 | 9056 ft | 250 kts | 267° |
| 2026-05-03 22:58 | 51.64644 | 0.12812 | 9055 ft | 250 kts | 270° |
| 2026-05-03 22:58 | 51.64684 | 0.10037 | 9056 ft | 249 kts | 270° |
| 2026-05-03 22:59 | 51.64728 | 0.07279 | 9054 ft | 249 kts | 270° |
| 2026-05-03 22:59 | 51.64774 | 0.04465 | 9055 ft | 249 kts | 270° |
| 2026-05-03 22:59 | 51.64819 | 0.01681 | 9054 ft | 249 kts | 270° |
| 2026-05-03 22:59 | 51.64864 | -0.01108 | 9058 ft | 249 kts | 270° |
| 2026-05-03 23:00 | 51.64907 | -0.03852 | 9051 ft | 247 kts | 270° |
| 2026-05-03 23:00 | 51.64950 | -0.06518 | 9043 ft | 230 kts | 270° |
| 2026-05-03 23:00 | 51.64981 | -0.08384 | 9042 ft | 219 kts | 270° |
| 2026-05-03 23:00 | 51.65020 | -0.10785 | 9049 ft | 212 kts | 270° |
| 2026-05-03 23:01 | 51.65058 | -0.13157 | 9053 ft | 212 kts | 270° |
| 2026-05-03 23:01 | 51.65095 | -0.15525 | 9053 ft | 212 kts | 270° |
| 2026-05-03 23:01 | 51.65132 | -0.17895 | 9053 ft | 212 kts | 270° |
| 2026-05-03 23:01 | 51.65170 | -0.20275 | 9053 ft | 212 kts | 270° |
| 2026-05-03 23:02 | 51.65206 | -0.22627 | 9053 ft | 212 kts | 270° |
| 2026-05-03 23:02 | 51.65206 | -0.25007 | 9051 ft | 212 kts | 261° |
| 2026-05-03 23:02 | 51.64593 | -0.27110 | 9052 ft | 209 kts | 224° |
| 2026-05-03 23:02 | 51.63373 | -0.28180 | 9050 ft | 209 kts | 189° |
| 2026-05-03 23:03 | 51.61945 | -0.27899 | 8915 ft | 210 kts | 153° |
| 2026-05-03 23:03 | 51.60874 | -0.26339 | 8586 ft | 212 kts | 121° |
| 2026-05-03 23:03 | 51.60226 | -0.24195 | 8259 ft | 213 kts | 111° |
| 2026-05-03 23:03 | 51.59682 | -0.22004 | 8122 ft | 210 kts | 110° |
| 2026-05-03 23:04 | 51.59146 | -0.19791 | 7893 ft | 213 kts | 110° |
| 2026-05-03 23:04 | 51.58610 | -0.17573 | 7505 ft | 212 kts | 110° |
| 2026-05-03 23:04 | 51.58079 | -0.15378 | 7129 ft | 210 kts | 110° |
| 2026-05-03 23:04 | 51.57553 | -0.13207 | 6728 ft | 208 kts | 110° |
| 2026-05-03 23:05 | 51.57030 | -0.11049 | 6321 ft | 207 kts | 110° |
| 2026-05-03 23:05 | 51.56503 | -0.08875 | 5794 ft | 212 kts | 110° |
| 2026-05-03 23:05 | 51.55963 | -0.06643 | 5249 ft | 215 kts | 110° |
| 2026-05-03 23:05 | 51.55422 | -0.04414 | 4701 ft | 214 kts | 110° |
| 2026-05-03 23:06 | 51.55104 | -0.03102 | 4381 ft | 214 kts | 110° |
| 2026-05-03 23:06 | 51.54563 | -0.00873 | 4098 ft | 216 kts | 110° |
| 2026-05-03 23:06 | 51.53849 | 0.02032 | 4038 ft | 199 kts | 114° |
| 2026-05-03 23:06 | 51.53323 | 0.03222 | 4039 ft | 193 kts | 138° |
| 2026-05-03 23:07 | 51.52124 | 0.04086 | 4057 ft | 190 kts | 171° |
| 2026-05-03 23:07 | 51.50809 | 0.04210 | 4058 ft | 190 kts | 180° |
| 2026-05-03 23:07 | 51.49546 | 0.03671 | 4052 ft | 191 kts | 213° |
| 2026-05-03 23:07 | 51.48665 | 0.02118 | 4063 ft | 190 kts | 236° |
| 2026-05-03 23:08 | 51.47992 | 0.00291 | 4056 ft | 189 kts | 240° |
| 2026-05-03 23:08 | 51.47505 | -0.01625 | 4042 ft | 181 kts | 257° |
| 2026-05-03 23:08 | 51.47374 | -0.03532 | 4045 ft | 171 kts | 267° |
| 2026-05-03 23:08 | 51.47381 | -0.05420 | 4052 ft | 169 kts | 271° |
| 2026-05-03 23:09 | 51.47431 | -0.07302 | 4046 ft | 168 kts | 272° |
| 2026-05-03 23:09 | 51.47496 | -0.09174 | 3735 ft | 168 kts | 272° |
| 2026-05-03 23:09 | 51.47568 | -0.11033 | 3374 ft | 166 kts | 273° |
| 2026-05-03 23:09 | 51.47742 | -0.12861 | 3006 ft | 166 kts | 277° |
| 2026-05-03 23:10 | 51.47825 | -0.14697 | 2667 ft | 163 kts | 270° |
| 2026-05-03 23:10 | 51.47819 | -0.16522 | 2561 ft | 165 kts | 268° |
| 2026-05-03 23:10 | 51.47800 | -0.18360 | 2554 ft | 165 kts | 268° |
| 2026-05-03 23:10 | 51.47794 | -0.20196 | 2555 ft | 165 kts | 269° |
| 2026-05-03 23:11 | 51.47798 | -0.22031 | 2554 ft | 164 kts | 269° |
| 2026-05-03 23:11 | 51.47812 | -0.23860 | 2472 ft | 162 kts | 270° |
| 2026-05-03 23:11 | 51.47825 | -0.25628 | 2260 ft | 156 kts | 269° |
| 2026-05-03 23:11 | 51.47817 | -0.27349 | 2050 ft | 154 kts | 268° |
| 2026-05-03 23:12 | 51.47808 | -0.29063 | 1841 ft | 153 kts | 269° |
| 2026-05-03 23:12 | 51.47802 | -0.30737 | 1640 ft | 152 kts | 269° |
| 2026-05-03 23:12 | 51.47797 | -0.32411 | 1440 ft | 152 kts | 269° |
| 2026-05-03 23:12 | 51.47792 | -0.34105 | 1246 ft | 151 kts | 269° |
| 2026-05-03 23:13 | 51.47787 | -0.35812 | 1034 ft | 151 kts | 269° |
| 2026-05-03 23:13 | 51.47782 | -0.37494 | 834 ft | 151 kts | 269° |
| 2026-05-03 23:13 | 51.47777 | -0.39167 | 635 ft | 150 kts | 269° |
| 2026-05-03 23:13 | 51.47772 | -0.40826 | 427 ft | 150 kts | 269° |
| 2026-05-03 23:14 | 51.47767 | -0.42492 | 238 ft | 150 kts | 268° |
| 2026-05-03 23:14 | 51.47761 | -0.44168 | 115 ft | 143 kts | 268° |
| 2026-05-03 23:14 | 51.47754 | -0.45560 | 88 ft | 84 kts | 270° |
| 2026-05-03 23:14 | 51.47757 | -0.46167 | 93 ft | 60 kts | 271° |
| 2026-05-03 23:15 | 51.47704 | -0.46706 | 95 ft | 43 kts | 244° |
| 2026-05-03 23:15 | 51.47632 | -0.46869 | 93 ft | 0 kts | 206° |
| 2026-05-03 23:16 | 51.47589 | -0.46930 | 92 ft | 22 kts | 242° |
| 2026-05-03 23:16 | 51.47580 | -0.47209 | 93 ft | 26 kts | 271° |
| 2026-05-03 23:16 | 51.47581 | -0.47511 | 93 ft | 28 kts | 270° |
| 2026-05-03 23:17 | 51.47580 | -0.47800 | 93 ft | 26 kts | 270° |
| 2026-05-03 23:17 | 51.47580 | -0.48101 | 93 ft | 28 kts | 270° |
| 2026-05-03 23:17 | 51.47576 | -0.48415 | 92 ft | 27 kts | 261° |
| 2026-05-03 23:17 | 51.47530 | -0.48470 | 92 ft | 11 kts | 181° |
| 2026-05-03 23:18 | 51.47405 | -0.48472 | 91 ft | 20 kts | 179° |
| 2026-05-03 23:18 | 51.47261 | -0.48474 | 91 ft | 21 kts | 181° |
| 2026-05-03 23:18 | 51.47133 | -0.48472 | 90 ft | 13 kts | 177° |
| 2026-05-03 23:18 | 51.47090 | -0.48496 | 92 ft | 4 kts | 248° |
| 2026-05-03 23:19 | 51.47088 | -0.48548 | 89 ft | 6 kts | 271° |
| 2026-05-03 23:19 | 51.47088 | -0.48577 | 89 ft | 0 kts | 269° |